Terminal Aerodrome Forecast
Issued by NWS

Home | Current Version | Previous Version | Text Only | Print | Product List | Glossary On
Versions: 1 2 3 4 5 6 7 8 9 10 11 12 13 14 15 16 17 18
000
FTUS41 KBTV 160330 AAA
TAFSLK
TAF AMD
KSLK 160330Z 1604/1624 20006KT P6SM VCSH OVC060
      TEMPO 1604/1606 4SM -SN OVC030
     FM160600 23005KT 2SM -SN BR OVC025
     FM161200 26006KT P6SM VCSH OVC025
     FM161500 26006KT P6SM SCT040
     FM161800 26007G17KT P6SM BKN040=

USA.gov is the U.S. government's official web portal to all federal, state and local government web resources and services.